Time;durP1;ratioP1;P1;durP2;ratioP2;P2;SDS_P1;SDS_P2;PMS_P1;PMS_P2;Temp;Humidity;BMP_temperature;BMP_pressure;BME280_temperature;BME280_humidity;BME280_pressure;Samples;Min_cycle;Max_cycle;Signal;HPM_P1;HPM_P2
2023/12/25 00:00:36;;;;;;;0.70;0.50;;;;;;;10.60;92.17;98419.23;126277;1296;129152;-69
2023/12/25 00:04:39;;;;;;;0.70;0.50;;;;;;;10.64;91.72;98424.58;126688;1286;115056;-70
2023/12/25 00:08:11;;;;;;;;;;;;;;;;;;;;;
2023/12/25 00:11:57;;;;;;;0.70;0.30;;;;;;;10.66;91.27;98441.83;126335;1287;115138;-70
2023/12/25 00:15:45;;;;;;;1.30;0.60;;;;;;;10.67;91.08;98430.52;126300;1295;114974;-71
2023/12/25 00:19:36;;;;;;;0.70;0.20;;;;;;;10.70;90.83;98436.45;125765;1302;130159;-72
2023/12/25 00:31:40;;;;;;;;;;;;;;;;;;;;;
2023/12/25 00:39:35;;;;;;;2.60;0.70;;;;;;;10.85;89.94;98427.78;124914;1310;130101;-71
2023/12/25 00:52:14;;;;;;;0.80;0.40;;;;;;;10.93;89.55;98432.64;125835;1301;638744;-71
2023/12/25 00:56:15;;;;;;;0.90;0.50;;;;;;;10.95;89.06;98440.72;128125;1282;127759;-68
2023/12/25 01:00:18;;;;;;;0.90;0.70;;;;;;;10.98;88.85;98448.69;128202;1301;114959;-68
2023/12/25 01:04:02;;;;;;;1.00;0.60;;;;;;;11.02;88.95;98440.36;123525;1287;5516803;-68
2023/12/25 01:08:08;;;;;;;1.30;0.40;;;;;;;11.04;88.81;98450.71;126861;1301;114888;-69
2023/12/25 01:15:59;;;;;;;1.20;0.30;;;;;;;11.12;88.67;98455.73;125996;1300;640250;-68
2023/12/25 01:19:33;;;;;;;;;;;;;;;;;;;;;
2023/12/25 01:23:01;;;;;;;1.00;0.40;;;;;;;11.12;88.01;98469.02;128957;1290;114802;-69
2023/12/25 01:26:38;;;;;;;;;;;;;;;;;;;;;
2023/12/25 01:30:43;;;;;;;0.90;0.40;;;;;;;11.14;87.97;98460.32;128898;1270;380125;-67
2023/12/25 01:34:45;;;;;;;1.00;0.40;;;;;;;11.14;87.91;98460.24;128857;1294;115598;-69
2023/12/25 01:42:10;;;;;;;0.80;0.50;;;;;;;11.17;87.45;98461.06;126628;1302;114913;-69
2023/12/25 01:50:15;;;;;;;0.50;0.20;;;;;;;11.21;87.23;98478.42;125588;1305;114970;-67
2023/12/25 01:54:09;;;;;;;;;;;;;;;;;;;;;
2023/12/25 01:57:41;;;;;;;1.20;0.50;;;;;;;11.23;86.95;98483.98;123985;1320;129883;-69
2023/12/25 02:01:45;;;;;;;0.90;0.40;;;;;;;11.26;86.98;98490.70;125909;1297;638883;-68
2023/12/25 02:05:39;;;;;;;0.40;0.20;;;;;;;11.25;86.99;98502.59;128883;1283;128773;-70
2023/12/25 02:09:12;;;;;;;2.50;0.30;;;;;;;11.25;86.34;98510.61;128482;1279;115609;-71
2023/12/25 02:13:05;;;;;;;;;;;;;;;;;;;;;
2023/12/25 02:16:38;;;;;;;0.50;0.20;;;;;;;11.27;86.40;98524.44;128642;1274;114762;-71
2023/12/25 02:20:42;;;;;;;0.50;0.30;;;;;;;11.27;85.94;98525.48;128984;1291;115142;-70
2023/12/25 02:24:45;;;;;;;0.60;0.20;;;;;;;11.29;86.12;98532.48;127534;1302;128632;-71
2023/12/25 02:28:26;;;;;;;;;;;;;;;;;;;;;
2023/12/25 02:32:17;;;;;;;0.80;0.40;;;;;;;11.32;85.50;98538.53;126308;1298;114932;-71
2023/12/25 02:35:38;;;;;;;1.20;0.50;;;;;;;11.34;85.44;98545.30;125954;1300;114948;-71
2023/12/25 02:39:33;;;;;;;0.90;0.20;;;;;;;11.36;85.33;98554.98;125851;1302;114952;-71
2023/12/25 02:43:15;;;;;;;0.90;0.40;;;;;;;11.38;85.29;98567.16;125593;1299;129935;-71
2023/12/25 02:46:27;;;;;;;0.80;0.30;;;;;;;11.40;85.03;98575.07;125689;1301;115520;-71
2023/12/25 02:50:35;;;;;;;;;;;;;;;;;;;;;
2023/12/25 02:54:13;;;;;;;0.60;0.20;;;;;;;11.40;84.84;98579.88;124890;1329;115059;-71
2023/12/25 03:02:01;;;;;;;1.00;0.20;;;;;;;11.44;84.58;98592.47;126479;1305;640050;-72
2023/12/25 03:06:05;;;;;;;1.00;0.30;;;;;;;11.43;84.57;98599.68;129068;1267;129079;-71
2023/12/25 03:09:45;;;;;;;1.00;0.40;;;;;;;11.44;84.43;98616.23;129235;1270;115417;-71
2023/12/25 03:13:50;;;;;;;0.70;0.20;;;;;;;11.44;84.29;98630.86;128990;1274;115156;-70
2023/12/25 03:17:23;;;;;;;1.00;0.20;;;;;;;11.43;84.07;98642.22;125089;1270;114745;-70
2023/12/25 03:20:36;;;;;;;0.90;0.50;;;;;;;11.42;83.87;98640.69;128892;1294;114734;-68
2023/12/25 03:24:02;;;;;;;1.10;0.40;;;;;;;11.41;84.23;98648.27;128941;1278;116532;-69
2023/12/25 03:27:44;;;;;;;1.10;0.50;;;;;;;11.40;84.23;98652.05;128886;1271;127911;-69
2023/12/25 03:31:14;;;;;;;0.80;0.60;;;;;;;11.39;84.26;98645.17;128513;1270;114936;-69
2023/12/25 03:34:28;;;;;;;1.10;0.40;;;;;;;11.38;84.04;98647.40;128952;1285;114884;-70
2023/12/25 03:37:50;;;;;;;0.60;0.30;;;;;;;11.37;84.25;98646.76;128797;1275;114767;-69
2023/12/25 03:40:53;;;;;;;0.70;0.40;;;;;;;11.36;84.01;98649.51;128878;1294;115347;-69
2023/12/25 03:44:04;;;;;;;0.80;0.20;;;;;;;11.35;84.09;98661.45;128887;1275;114924;-70
2023/12/25 03:47:40;;;;;;;1.10;0.20;;;;;;;11.32;84.00;98644.50;128898;1293;114766;-69
2023/12/25 03:54:38;;;;;;;1.10;0.40;;;;;;;11.29;83.91;98638.52;129197;1288;114846;-70
2023/12/25 03:57:43;;;;;;;0.80;0.30;;;;;;;11.24;84.14;98629.23;129136;1269;114746;-70
2023/12/25 04:01:35;;;;;;;0.70;0.20;;;;;;;11.20;84.19;98634.91;129307;1269;128954;-69
2023/12/25 04:05:38;;;;;;;1.50;0.50;;;;;;;11.17;84.06;98630.70;129181;1288;114913;-70
2023/12/25 04:09:19;;;;;;;1.40;0.50;;;;;;;11.13;84.45;98635.83;128791;1275;114795;-70
2023/12/25 04:12:25;;;;;;;0.80;0.30;;;;;;;11.10;84.51;98636.90;128803;1294;114840;-70
2023/12/25 04:15:36;;;;;;;0.70;0.40;;;;;;;11.08;84.58;98636.02;128756;1277;114856;-70
2023/12/25 04:19:30;;;;;;;2.30;0.40;;;;;;;11.06;84.35;98637.38;128781;1276;127857;-69
2023/12/25 04:23:33;;;;;;;1.20;0.40;;;;;;;11.04;84.59;98641.33;128774;1273;114832;-70
2023/12/25 04:27:36;;;;;;;2.60;0.90;;;;;;;11.02;84.41;98639.19;128110;1282;114994;-69
2023/12/25 04:35:40;;;;;;;1.50;0.60;;;;;;;10.97;84.80;98627.93;125732;1319;114869;-70
2023/12/25 04:39:42;;;;;;;1.50;0.60;;;;;;;10.95;84.48;98629.15;124434;1314;130068;-70
2023/12/25 04:48:07;;;;;;;1.00;0.30;;;;;;;10.96;84.26;98643.91;126468;1299;637525;-68
2023/12/25 04:52:10;;;;;;;1.10;0.50;;;;;;;10.94;84.34;98641.17;128012;1301;128029;-71
2023/12/25 04:55:52;;;;;;;2.00;0.60;;;;;;;10.94;84.06;98646.70;127289;1306;114970;-70
2023/12/25 04:59:28;;;;;;;1.30;0.70;;;;;;;10.94;83.78;98644.58;126975;1288;378093;-70
2023/12/25 05:03:19;;;;;;;1.00;0.50;;;;;;;10.95;84.10;98659.34;127093;1304;114868;-70
2023/12/25 05:06:26;;;;;;;0.70;0.40;;;;;;;10.95;83.87;98653.81;127630;1288;114974;-72
2023/12/25 05:10:09;;;;;;;1.80;0.70;;;;;;;10.96;83.94;98665.52;127590;1296;127891;-71
2023/12/25 05:13:29;;;;;;;1.30;0.50;;;;;;;10.99;83.77;98676.16;127583;1288;115376;-71
2023/12/25 05:17:03;;;;;;;1.00;0.30;;;;;;;11.03;83.64;98682.45;128002;1288;114870;-72
2023/12/25 05:20:57;;;;;;;1.40;0.50;;;;;;;11.06;84.06;98685.32;127726;1287;114978;-72
2023/12/25 05:24:40;;;;;;;1.00;0.50;;;;;;;11.06;84.59;98682.46;127662;1301;114948;-70
2023/12/25 05:28:43;;;;;;;1.00;0.40;;;;;;;11.03;84.87;98683.96;128105;1273;128915;-69
2023/12/25 05:32:47;;;;;;;1.80;0.50;;;;;;;10.96;84.94;98685.19;129005;1285;114878;-72
2023/12/25 05:36:11;;;;;;;0.40;0.20;;;;;;;10.89;85.26;98684.30;128812;1285;114847;-70
2023/12/25 05:39:35;;;;;;;0.70;0.30;;;;;;;10.84;85.70;98684.69;128732;1276;114792;-71
2023/12/25 05:43:38;;;;;;;0.70;0.40;;;;;;;10.79;85.34;98675.02;128697;1285;115461;-69
2023/12/25 05:47:19;;;;;;;0.70;0.40;;;;;;;10.73;85.42;98672.30;127547;1287;129763;-71
2023/12/25 05:51:14;;;;;;;1.10;0.50;;;;;;;10.63;84.89;98671.98;127576;1294;114838;-70
2023/12/25 05:55:08;;;;;;;;;;;;;;;;;;;;;
2023/12/25 05:59:04;;;;;;;0.70;0.30;;;;;;;10.50;85.17;98680.22;127373;1287;114960;-69
2023/12/25 06:02:47;;;;;;;;;;;;;;;;;;;;;
2023/12/25 06:06:48;;;;;;;1.40;1.00;;;;;;;10.46;85.56;98687.88;126034;1298;129846;-70
2023/12/25 06:10:31;;;;;;;;;;;;;;;;;;;;;
2023/12/25 06:14:32;;;;;;;1.60;0.70;;;;;;;10.42;85.16;98682.52;126293;1307;115021;-70
2023/12/25 06:18:27;;;;;;;;;;;;;;;;;;;;;
2023/12/25 06:21:51;;;;;;;1.30;0.30;;;;;;;10.33;84.91;98671.30;126394;1298;114882;-70
2023/12/25 06:25:23;;;;;;;;;;;;;;;;;;;;;
2023/12/25 06:29:05;;;;;;;;;;;;;;;10.28;84.82;98675.05;126901;1291;114836;-71
2023/12/25 06:32:56;;;;;;;1.80;0.80;;;;;;;10.27;84.38;98674.45;127178;1300;114990;-71
2023/12/25 06:40:20;;;;;;;0.60;0.20;;;;;;;10.24;84.28;98675.05;127159;1287;114779;-70
2023/12/25 06:44:21;;;;;;;1.00;0.60;;;;;;;10.24;84.45;98691.96;126711;1289;129769;-71
2023/12/25 06:56:57;;;;;;;0.90;0.60;;;;;;;10.37;84.67;98707.77;126368;1298;636289;-72
2023/12/25 07:01:02;;;;;;;1.20;0.50;;;;;;;10.41;85.25;98707.89;128272;1279;128377;-70
2023/12/25 07:05:04;;;;;;;0.70;0.50;;;;;;;10.45;84.56;98718.27;127856;1291;115300;-70
2023/12/25 07:09:05;;;;;;;0.90;0.50;;;;;;;10.50;85.53;98729.70;122862;1300;5457701;-72
2023/12/25 07:13:07;;;;;;;2.80;0.30;;;;;;;10.53;85.57;98734.85;125524;1314;115010;-72
2023/12/25 07:17:08;;;;;;;1.20;0.60;;;;;;;10.55;85.48;98749.58;124756;1310;115029;-72
2023/12/25 07:25:44;;;;;;;0.90;0.30;;;;;;;10.62;85.58;98751.63;125920;1297;638009;-70
2023/12/25 07:33:41;;;;;;;;;;;;;;;;;;;;;
2023/12/25 07:41:29;;;;;;;;;;;;;;;10.69;85.75;98750.63;125627;1304;114948;-71
2023/12/25 07:49:32;;;;;;;1.60;0.90;;;;;;;10.75;85.55;98758.23;124903;1329;115083;-71
2023/12/25 08:06:05;;;;;;;1.40;0.50;;;;;;;11.02;85.33;98769.89;128050;1292;128609;-70
2023/12/25 08:14:09;;;;;;;0.80;0.50;;;;;;;11.17;85.22;98793.09;121606;1316;5634900;-72
2023/12/25 08:22:44;;;;;;;1.50;0.60;;;;;;;11.21;85.42;98817.05;125918;1299;639546;-71
2023/12/25 08:26:36;;;;;;;;;;;;;;;;;;;;;
2023/12/25 08:35:15;;;;;;;1.90;0.70;;;;;;;11.25;85.00;98842.02;125819;1299;640902;-71
2023/12/25 08:39:18;;;;;;;2.70;0.50;;;;;;;11.21;85.12;98846.43;128973;1274;128972;-69
2023/12/25 08:43:21;;;;;;;1.80;0.40;;;;;;;11.22;85.54;98851.83;127569;1280;115024;-69
2023/12/25 08:47:23;;;;;;;1.70;0.90;;;;;;;11.26;85.42;98838.15;122811;1291;5500792;-70
2023/12/25 08:51:17;;;;;;;0.90;0.30;;;;;;;11.28;85.29;98844.45;126321;1298;115061;-70
2023/12/25 08:54:58;;;;;;;1.30;0.30;;;;;;;11.22;85.10;98838.76;125841;1299;114926;-69
2023/12/25 08:58:12;;;;;;;1.00;0.50;;;;;;;11.20;85.36;98844.50;124999;1315;115212;-69
2023/12/25 09:01:37;;;;;;;2.70;1.20;;;;;;;11.21;85.44;98855.18;124953;1321;129851;-70
2023/12/25 09:05:19;;;;;;;1.20;0.80;;;;;;;11.27;85.59;98862.95;124920;1328;114979;-71
2023/12/25 09:09:09;;;;;;;1.00;0.90;;;;;;;11.27;85.53;98875.27;124886;1328;114924;-68
2023/12/25 09:17:05;;;;;;;7.50;4.90;;;;;;;11.28;86.10;98881.06;125986;1300;638624;-69
2023/12/25 09:21:05;;;;;;;2.60;1.40;;;;;;;11.25;86.40;98894.92;128738;1294;128154;-70
2023/12/25 09:25:01;;;;;;;2.50;1.60;;;;;;;11.15;86.11;98898.85;128720;1281;114931;-71
2023/12/25 09:28:35;;;;;;;1.70;0.50;;;;;;;11.08;86.90;98899.20;127349;1290;116651;-68
2023/12/25 09:32:32;;;;;;;2.10;1.00;;;;;;;11.05;87.06;98894.39;127082;1292;115227;-67
2023/12/25 09:36:24;;;;;;;;;;;;;;;;;;;;;
2023/12/25 09:44:29;;;;;;;2.40;1.00;;;;;;;10.95;87.99;98892.12;125627;1322;114966;-69
2023/12/25 09:53:04;;;;;;;1.90;0.70;;;;;;;11.03;88.27;98887.39;125768;1304;640027;-68
2023/12/25 09:56:58;;;;;;;2.00;0.50;;;;;;;10.98;88.15;98893.89;128127;1281;129138;-70
2023/12/25 10:01:01;;;;;;;1.90;0.90;;;;;;;10.94;88.43;98897.38;127387;1286;114808;-70
2023/12/25 10:09:06;;;;;;;2.50;2.10;;;;;;;10.80;88.55;98901.21;125904;1301;114891;-70
2023/12/25 10:13:08;;;;;;;7.20;3.80;;;;;;;10.74;88.74;98915.94;125220;1307;114970;-71
2023/12/25 10:21:10;;;;;;;5.80;3.30;;;;;;;10.68;89.20;98910.48;123704;1318;129903;-69
2023/12/25 10:29:48;;;;;;;1.60;0.80;;;;;;;10.66;89.57;98910.65;126156;1297;640740;-70
2023/12/25 10:41:57;;;;;;;1.90;1.30;;;;;;;10.61;89.69;98919.16;122739;1291;5416268;-70
2023/12/25 10:45:38;;;;;;;2.00;1.10;;;;;;;10.62;89.86;98933.21;126301;1295;114827;-69
2023/12/25 10:49:29;;;;;;;;;;;;;;;;;;;;;
2023/12/25 10:53:25;;;;;;;2.80;1.40;;;;;;;10.67;90.54;98924.30;125575;1299;115096;-70
2023/12/25 10:57:27;;;;;;;1.20;0.60;;;;;;;10.76;90.72;98917.23;124409;1314;129786;-70
2023/12/25 11:01:32;;;;;;;3.60;1.10;;;;;;;10.85;90.61;98908.38;124332;1329;114928;-70
2023/12/25 11:10:10;;;;;;;1.20;0.60;;;;;;;11.09;90.07;98908.79;125887;1300;639443;-70
2023/12/25 11:14:10;;;;;;;2.30;1.10;;;;;;;11.28;90.19;98905.81;127695;1286;128945;-70
2023/12/25 11:18:15;;;;;;;2.50;1.10;;;;;;;11.42;89.86;98899.70;126159;1299;114894;-70
2023/12/25 11:22:15;;;;;;;3.00;1.30;;;;;;;11.50;89.06;98908.08;123132;1302;3169928;-70
2023/12/25 11:30:35;;;;;;;;;;;;;;;;;;;;;
2023/12/25 11:35:03;;;;;;;1.30;0.60;;;;;;;11.81;88.11;98917.67;128468;1276;128347;-69
2023/12/25 11:39:10;;;;;;;;;;;;;;;;;;;;;
2023/12/25 11:43:08;;;;;;;;;;;;;;;;;;;;;
2023/12/25 11:47:00;;;;;;;4.90;1.70;;;;;;;12.26;87.73;98924.21;126233;1299;114818;-69
2023/12/25 11:51:02;;;;;;;1.30;0.80;;;;;;;12.38;86.84;98917.94;125449;1307;114916;-69
2023/12/25 11:54:55;;;;;;;1.70;1.00;;;;;;;12.35;86.39;98922.66;124977;1310;114993;-68
2023/12/25 12:03:12;;;;;;;;;;;;;;;;;;;;;
2023/12/25 12:07:15;;;;;;;2.80;1.40;;;;;;;12.21;85.39;98959.54;127562;1290;130487;-68
2023/12/25 12:11:20;;;;;;;2.80;1.00;;;;;;;12.14;85.22;98951.10;126657;1296;114787;-68
2023/12/25 12:15:12;;;;;;;2.10;1.00;;;;;;;12.11;84.89;98939.53;122717;1295;5669551;-68
2023/12/25 12:19:13;;;;;;;3.20;2.20;;;;;;;12.08;84.49;98955.70;126489;1292;115058;-71
2023/12/25 12:23:13;;;;;;;;;;;;;;;;;;;;;
2023/12/25 12:31:48;;;;;;;4.50;2.50;;;;;;;12.08;83.93;98953.97;125909;1298;637943;-69
2023/12/25 12:35:50;;;;;;;2.60;1.70;;;;;;;11.99;83.63;98953.70;127928;1283;129028;-68
2023/12/25 12:39:53;;;;;;;3.80;2.20;;;;;;;11.87;82.82;98968.41;127470;1284;114896;-68
2023/12/25 12:43:57;;;;;;;2.50;1.60;;;;;;;11.76;82.70;98972.59;122097;1299;5505129;-68
2023/12/25 12:47:58;;;;;;;2.60;1.30;;;;;;;11.66;82.25;98975.48;125682;1321;115398;-67
2023/12/25 12:51:53;;;;;;;5.30;2.40;;;;;;;11.61;83.03;98988.05;124792;1313;114940;-68
2023/12/25 12:55:53;;;;;;;5.80;3.10;;;;;;;11.56;82.68;98992.85;124370;1308;114922;-70
2023/12/25 12:59:47;;;;;;;;;;;;;;;;;;;;;
2023/12/25 13:08:19;;;;;;;3.90;2.10;;;;;;;11.64;83.11;98989.61;128738;1277;128579;-70
2023/12/25 13:12:06;;;;;;;2.60;1.60;;;;;;;11.64;82.97;98991.19;128554;1277;115017;-70
2023/12/25 13:15:57;;;;;;;3.30;1.50;;;;;;;11.64;82.79;98992.09;124576;1296;5510208;-69
2023/12/25 13:19:59;;;;;;;3.20;1.60;;;;;;;11.64;82.73;98995.89;127347;1306;114962;-69
2023/12/25 13:24:00;;;;;;;2.40;1.60;;;;;;;11.62;82.32;99004.98;126624;1311;114766;-70
2023/12/25 13:32:36;;;;;;;4.00;1.80;;;;;;;11.58;82.34;99010.26;125866;1297;638827;-69
2023/12/25 13:36:38;;;;;;;3.80;2.40;;;;;;;11.52;82.65;99030.35;128424;1280;128613;-70
2023/12/25 13:44:35;;;;;;;2.90;1.20;;;;;;;11.40;81.90;99036.77;122197;1297;5527296;-70
2023/12/25 13:48:28;;;;;;;;;;;;;;;;;;;;;
2023/12/25 13:52:20;;;;;;;3.70;2.30;;;;;;;11.32;82.22;99043.63;125612;1314;115430;-69
2023/12/25 13:56:24;;;;;;;4.80;2.70;;;;;;;11.29;82.28;99050.42;125125;1307;114903;-69
2023/12/25 14:00:23;;;;;;;8.50;2.60;;;;;;;11.27;82.01;99054.56;124148;1329;129775;-69
2023/12/25 14:04:24;;;;;;;4.30;2.60;;;;;;;11.24;82.08;99051.19;123510;1325;115009;-69
2023/12/25 14:12:59;;;;;;;4.40;2.10;;;;;;;11.18;81.79;99060.38;126012;1305;638285;-70
2023/12/25 14:24:58;;;;;;;4.30;1.70;;;;;;;10.91;81.83;99079.20;123768;1284;5408594;-71
2023/12/25 14:29:02;;;;;;;3.00;1.60;;;;;;;10.85;82.05;99079.30;126597;1294;114948;-71
2023/12/25 14:33:03;;;;;;;5.00;2.00;;;;;;;10.79;81.90;99085.27;125917;1318;114986;-70
2023/12/25 14:37:05;;;;;;;11.60;6.30;;;;;;;10.73;82.15;99087.85;125151;1310;114970;-69
2023/12/25 14:41:06;;;;;;;5.70;3.10;;;;;;;10.66;82.02;99094.21;125145;1313;127866;-68
2023/12/25 14:49:37;;;;;;;2.60;1.50;;;;;;;10.57;82.32;99097.14;126221;1301;636910;-69
2023/12/25 14:53:41;;;;;;;6.50;2.90;;;;;;;10.48;81.76;99110.20;128916;1275;128850;-71
2023/12/25 14:57:43;;;;;;;4.60;2.50;;;;;;;10.42;82.01;99122.46;128141;1282;114785;-69
2023/12/25 15:05:47;;;;;;;3.70;2.30;;;;;;;10.18;81.79;99136.30;126611;1304;114995;-70
2023/12/25 15:09:49;;;;;;;3.70;2.10;;;;;;;10.04;81.83;99134.70;125985;1303;114864;-69
2023/12/25 15:13:51;;;;;;;3.50;2.40;;;;;;;9.93;82.17;99139.41;124561;1313;115747;-69
2023/12/25 15:30:23;;;;;;;;;;;;;;;;;;;;;
2023/12/25 15:34:26;;;;;;;3.10;1.30;;;;;;;9.64;82.82;99161.73;122641;1291;5518685;-70
2023/12/25 15:38:28;;;;;;;2.90;1.40;;;;;;;9.57;82.90;99163.81;125336;1324;115089;-69
2023/12/25 15:51:05;;;;;;;6.00;2.40;;;;;;;9.45;83.79;99189.50;128178;1284;128959;-69
2023/12/25 15:55:09;;;;;;;4.30;1.50;;;;;;;9.41;83.93;99198.66;126655;1296;114948;-70
2023/12/25 15:59:08;;;;;;;3.20;1.50;;;;;;;9.39;84.15;99190.06;122284;1295;5520900;-69
2023/12/25 16:15:48;;;;;;;4.90;1.50;;;;;;;9.46;84.69;99202.27;127822;1302;129004;-69
2023/12/25 16:20:00;;;;;;;;;;;;;;;;;;;;;
2023/12/25 16:36:39;;;;;;;;;;;;;;;;;;;;;
2023/12/25 16:40:35;;;;;;;;;;;;;;;;;;;;;
2023/12/25 16:52:42;;;;;;;2.80;1.60;;;;;;;9.60;84.48;99261.11;126438;1295;114989;-69
2023/12/25 16:56:44;;;;;;;3.20;1.40;;;;;;;9.60;84.68;99271.33;125873;1301;115242;-69
2023/12/25 17:09:22;;;;;;;4.10;1.80;;;;;;;9.58;84.70;99291.02;128016;1300;127839;-69
2023/12/25 17:13:24;;;;;;;3.50;1.50;;;;;;;9.58;84.78;99300.27;127969;1283;114869;-70
2023/12/25 17:17:33;;;;;;;3.50;1.60;;;;;;;9.61;84.76;99314.90;123236;1289;5615230;-69
2023/12/25 17:21:34;;;;;;;3.00;1.20;;;;;;;9.63;84.87;99327.27;126210;1294;115283;-69
2023/12/25 17:25:35;;;;;;;3.30;1.50;;;;;;;9.65;84.80;99323.38;125303;1305;115019;-69
2023/12/25 17:29:37;;;;;;;2.70;1.80;;;;;;;9.66;85.21;99325.83;124894;1311;129947;-69
2023/12/25 17:38:12;;;;;;;3.20;1.30;;;;;;;9.69;84.94;99319.73;126227;1298;640161;-69
2023/12/25 17:42:14;;;;;;;3.30;1.00;;;;;;;9.69;84.76;99330.23;128117;1281;127955;-70
2023/12/25 17:54:16;;;;;;;;;;;;;;;;;;;;;
2023/12/25 18:02:43;;;;;;;4.60;2.30;;;;;;;9.76;84.50;99331.98;125893;1300;637832;-68
2023/12/25 18:06:44;;;;;;;4.50;2.70;;;;;;;9.74;84.53;99340.48;128886;1293;128736;-68
2023/12/25 18:10:47;;;;;;;2.20;1.30;;;;;;;9.74;84.30;99336.74;128859;1293;114848;-68
2023/12/25 18:14:53;;;;;;;2.40;1.30;;;;;;;9.73;84.32;99338.75;124197;1277;5434296;-67
2023/12/25 18:18:53;;;;;;;2.80;1.20;;;;;;;9.73;84.29;99338.58;127566;1289;114932;-68
2023/12/25 18:22:53;;;;;;;3.00;1.00;;;;;;;9.72;84.46;99335.42;126384;1297;114954;-68
2023/12/25 18:26:34;;;;;;;;;;;;;;;9.73;84.40;99337.68;125645;1304;131029;-68
2023/12/25 18:30:36;;;;;;;2.30;0.90;;;;;;;9.72;84.20;99352.51;125578;1302;114904;-67
2023/12/25 18:34:28;;;;;;;2.30;0.80;;;;;;;9.72;84.46;99361.99;125084;1310;115886;-67
2023/12/25 18:38:30;;;;;;;2.00;1.00;;;;;;;9.75;84.18;99372.74;124233;1316;114993;-69
2023/12/25 18:46:46;;;;;;;;;;;;;;;;;;;;;
2023/12/25 18:54:47;;;;;;;3.40;1.40;;;;;;;9.81;84.10;99372.49;127080;1291;114953;-70
2023/12/25 18:58:48;;;;;;;3.40;2.00;;;;;;;9.81;84.35;99381.06;122147;1301;5513312;-69
2023/12/25 19:02:50;;;;;;;3.80;1.90;;;;;;;9.79;84.12;99383.17;125443;1305;115105;-67
2023/12/25 19:06:26;;;;;;;;;;;;;;;;;;;;;
2023/12/25 19:19:06;;;;;;;4.10;1.70;;;;;;;9.77;84.32;99354.41;127319;1287;127755;-69
2023/12/25 19:27:13;;;;;;;3.50;1.30;;;;;;;9.76;84.22;99351.28;121570;1316;5558338;-67
2023/12/25 19:31:10;;;;;;;;;;;;;;;;;;;;;
2023/12/25 19:35:46;;;;;;;2.10;1.00;;;;;;;9.76;83.99;99379.60;125763;1298;638565;-68
2023/12/25 19:39:49;;;;;;;2.50;1.10;;;;;;;9.75;84.08;99387.36;128063;1299;128873;-69
2023/12/25 19:43:51;;;;;;;4.80;1.80;;;;;;;9.73;84.17;99389.02;126718;1291;114922;-68
2023/12/25 19:47:52;;;;;;;2.90;1.60;;;;;;;9.72;84.12;99387.30;122231;1296;5576930;-68
2023/12/25 19:55:35;;;;;;;4.40;1.30;;;;;;;9.73;83.93;99396.73;125001;1321;114843;-67
2023/12/25 19:59:37;;;;;;;2.60;1.20;;;;;;;9.73;83.79;99386.73;124907;1314;114933;-67
2023/12/25 20:03:18;;;;;;;2.80;1.30;;;;;;;9.73;84.21;99394.19;124409;1313;128962;-69
2023/12/25 20:11:54;;;;;;;4.00;2.20;;;;;;;9.76;84.12;99385.13;125792;1301;639239;-68
2023/12/25 20:15:54;;;;;;;;;;;;;;;;;;;;;
2023/12/25 20:27:54;;;;;;;3.20;0.90;;;;;;;9.70;84.27;99405.11;125681;1321;114924;-68
2023/12/25 20:32:14;;;;;;;2.80;1.20;;;;;;;9.69;84.33;99414.06;124215;1312;114834;-69
2023/12/25 20:40:04;;;;;;;2.80;1.30;;;;;;;9.71;84.40;99417.16;126133;1303;636833;-69
2023/12/25 20:48:09;;;;;;;3.30;1.50;;;;;;;9.65;84.73;99413.40;126804;1292;114846;-68
2023/12/25 20:56:12;;;;;;;3.30;1.70;;;;;;;9.61;84.95;99419.73;125585;1300;114977;-68
2023/12/25 21:04:48;;;;;;;3.30;1.30;;;;;;;9.60;84.89;99426.00;125869;1300;639541;-68
2023/12/25 21:12:53;;;;;;;4.10;1.70;;;;;;;9.58;85.01;99446.98;127387;1286;115031;-67
2023/12/25 21:16:55;;;;;;;5.20;1.80;;;;;;;9.58;85.00;99456.63;122416;1299;5642924;-67
2023/12/25 21:20:50;;;;;;;3.90;1.70;;;;;;;9.59;84.88;99453.89;125635;1305;114863;-70
2023/12/25 21:29:24;;;;;;;2.20;0.90;;;;;;;9.60;84.74;99444.00;125588;1304;638455;-69
2023/12/25 21:33:11;;;;;;;;;;;;;;;;;;;;;
2023/12/25 21:37:17;;;;;;;2.70;1.00;;;;;;;9.58;85.01;99442.16;127119;1305;115045;-69
2023/12/25 21:41:09;;;;;;;2.20;1.00;;;;;;;9.55;85.03;99446.27;123084;1292;5492198;-68
2023/12/25 21:53:16;;;;;;;2.20;1.00;;;;;;;9.47;84.80;99439.64;126014;1317;114870;-69
2023/12/25 22:01:51;;;;;;;2.20;0.80;;;;;;;9.46;84.96;99439.14;125892;1300;639220;-68
2023/12/25 22:05:54;;;;;;;2.40;1.00;;;;;;;9.43;85.18;99434.83;129068;1290;128126;-68
2023/12/25 22:09:40;;;;;;;4.20;1.30;;;;;;;9.43;85.03;99437.13;128406;1280;114917;-67
2023/12/25 22:13:42;;;;;;;2.60;0.90;;;;;;;9.42;85.21;99442.92;124473;1280;5489779;-67
2023/12/25 22:21:48;;;;;;;2.40;1.50;;;;;;;9.40;85.19;99446.79;126117;1296;114898;-67
2023/12/25 22:38:08;;;;;;;1.70;1.10;;;;;;;9.39;86.04;99447.20;127300;1284;114853;-68
2023/12/25 22:45:54;;;;;;;2.60;0.80;;;;;;;9.35;86.66;99436.73;125195;1323;115038;-68
2023/12/25 22:49:55;;;;;;;2.30;0.70;;;;;;;9.35;86.53;99433.02;125022;1325;114900;-69
2023/12/25 22:58:09;;;;;;;;;;;;;;;;;;;;;
2023/12/25 23:01:55;;;;;;;;;;;;;;;;;;;;;
2023/12/25 23:05:41;;;;;;;3.80;1.30;;;;;;;9.32;87.28;99433.36;127727;1284;114856;-70
2023/12/25 23:09:36;;;;;;;;;;;;;;;;;;;;;
2023/12/25 23:13:39;;;;;;;5.30;1.40;;;;;;;9.29;87.51;99426.91;122829;1290;114922;-69
2023/12/25 23:17:12;;;;;;;3.90;1.60;;;;;;;9.28;87.55;99416.48;125848;1301;114949;-67
2023/12/25 23:20:57;;;;;;;2.90;0.90;;;;;;;9.26;87.68;99413.02;125681;1312;114861;-68
2023/12/25 23:24:42;;;;;;;1.80;1.20;;;;;;;9.24;87.63;99407.44;125522;1314;129155;-68
2023/12/25 23:28:17;;;;;;;;;;;;;;;;;;;;;
2023/12/25 23:31:55;;;;;;;4.40;2.10;;;;;;;9.21;87.99;99403.00;125920;1295;115263;-68
2023/12/25 23:35:47;;;;;;;;;;;;;;;;;;;;;
2023/12/25 23:39:28;;;;;;;5.00;2.50;;;;;;;9.13;88.21;99404.69;126093;1306;115404;-68
2023/12/25 23:43:31;;;;;;;6.70;3.20;;;;;;;9.10;88.33;99403.42;126252;1293;127874;-68
2023/12/25 23:47:13;;;;;;;4.60;2.80;;;;;;;9.07;88.60;99398.27;125987;1298;114882;-70
2023/12/25 23:50:54;;;;;;;9.60;5.70;;;;;;;9.04;88.31;99403.63;126556;1308;115161;-68
2023/12/25 23:54:45;;;;;;;;;;;;;;;;;;;;;
2023/12/25 23:57:51;;;;;;;4.50;2.50;;;;;;;8.93;88.56;99393.70;126885;1292;115202;-67
